Time;durP1;ratioP1;P1;durP2;ratioP2;P2;SDS_P1;SDS_P2;PMS_P1;PMS_P2;Temp;Humidity;BMP_temperature;BMP_pressure;BME280_temperature;BME280_humidity;BME280_pressure;Samples;Min_cycle;Max_cycle;Signal;HPM_P1;HPM_P2
2023/03/08 00:01:18;;;;;;;0.50;0.43;;;;;;;;;;5096243;28;20070;-57
2023/03/08 00:03:44;;;;;;;0.10;0.10;;;;;;;;;;5096032;28;20012;-61
2023/03/08 00:06:13;;;;;;;0.20;0.20;;;;;;;;;;5095841;28;20026;-60
2023/03/08 00:08:39;;;;;;;0.10;0.10;;;;;;;;;;5096625;28;20020;-57
2023/03/08 00:11:05;;;;;;;1.70;0.63;;;;;;;;;;5098956;28;20102;-54
2023/03/08 00:13:31;;;;;;;0.57;0.47;;;;;;;;;;5098640;28;20020;-55
2023/03/08 00:16:00;;;;;;;0.20;0.13;;;;;;;;;;5095484;28;20102;-56
2023/03/08 00:18:26;;;;;;;0.00;0.00;;;;;;;;;;5095191;28;20028;-55
2023/03/08 00:20:58;;;;;;;0.70;0.40;;;;;;;;;;5095249;28;20388;-56
2023/03/08 00:23:23;;;;;;;0.50;0.50;;;;;;;;;;5095178;28;20031;-57
2023/03/08 00:25:52;;;;;;;0.30;0.30;;;;;;;;;;5094903;28;20349;-55
2023/03/08 00:28:17;;;;;;;0.37;0.37;;;;;;;;;;5111653;28;20043;-60
2023/03/08 00:30:43;;;;;;;0.30;0.30;;;;;;;;;;5095732;28;20460;-56
2023/03/08 00:33:08;;;;;;;0.00;0.00;;;;;;;;;;5111158;28;20073;-56
2023/03/08 00:35:34;;;;;;;0.00;0.00;;;;;;;;;;5096351;28;20016;-65
2023/03/08 00:37:59;;;;;;;0.20;0.10;;;;;;;;;;5111492;28;20050;-55
2023/03/08 00:40:24;;;;;;;1.07;0.10;;;;;;;;;;5095752;28;20016;-60
2023/03/08 00:42:50;;;;;;;1.50;0.83;;;;;;;;;;5095691;28;20016;-58
2023/03/08 00:45:15;;;;;;;0.40;0.40;;;;;;;;;;5095068;28;20029;-54
2023/03/08 00:47:41;;;;;;;0.10;0.10;;;;;;;;;;5095389;28;20464;-54
2023/03/08 00:50:06;;;;;;;0.00;0.00;;;;;;;;;;5095140;28;20531;-59
2023/03/08 00:52:32;;;;;;;0.57;0.40;;;;;;;;;;5095936;28;20032;-59
2023/03/08 00:54:57;;;;;;;0.67;0.47;;;;;;;;;;5111365;28;20020;-57
2023/03/08 00:57:22;;;;;;;0.20;0.10;;;;;;;;;;5095917;28;20065;-55
2023/03/08 00:59:48;;;;;;;2.10;1.27;;;;;;;;;;5111206;28;20024;-53
2023/03/08 01:02:13;;;;;;;0.17;0.17;;;;;;;;;;5111333;28;20036;-55
2023/03/08 01:04:39;;;;;;;0.00;0.00;;;;;;;;;;5096135;28;20035;-56
2023/03/08 01:07:04;;;;;;;1.40;0.17;;;;;;;;;;5094661;28;20104;-55
2023/03/08 01:09:30;;;;;;;0.70;0.40;;;;;;;;;;5096346;28;20046;-55
2023/03/08 01:11:55;;;;;;;0.00;0.00;;;;;;;;;;5112311;28;20063;-58
2023/03/08 01:14:20;;;;;;;0.20;0.20;;;;;;;;;;5110394;28;20530;-56
2023/03/08 01:16:46;;;;;;;0.67;0.27;;;;;;;;;;5111581;28;20027;-57
2023/03/08 01:19:11;;;;;;;0.13;0.13;;;;;;;;;;5112061;28;20022;-56
2023/03/08 01:21:37;;;;;;;0.10;0.10;;;;;;;;;;5096368;28;20016;-58
2023/03/08 01:24:02;;;;;;;0.67;0.57;;;;;;;;;;5112448;28;20020;-58
2023/03/08 01:26:28;;;;;;;0.87;0.57;;;;;;;;;;5112885;28;20020;-61
2023/03/08 01:28:53;;;;;;;0.50;0.47;;;;;;;;;;5096794;28;20569;-60
2023/03/08 01:31:20;;;;;;;0.47;0.47;;;;;;;;;;5111865;28;20568;-58
2023/03/08 01:33:46;;;;;;;1.23;0.53;;;;;;;;;;5096910;28;20111;-60
2023/03/08 01:36:14;;;;;;;1.93;0.23;;;;;;;;;;5097215;28;20016;-62
2023/03/08 01:38:39;;;;;;;0.83;0.47;;;;;;;;;;5096361;28;20095;-66
2023/03/08 01:41:06;;;;;;;0.00;0.00;;;;;;;;;;5096391;28;20040;-61
2023/03/08 01:43:32;;;;;;;1.30;0.13;;;;;;;;;;5112480;28;20031;-57
2023/03/08 01:46:01;;;;;;;0.30;0.20;;;;;;;;;;5112163;28;20111;-58
2023/03/08 01:48:31;;;;;;;0.10;0.10;;;;;;;;;;5111896;28;20107;-58
2023/03/08 01:50:57;;;;;;;0.00;0.00;;;;;;;;;;5111464;28;20488;-59
2023/03/08 01:53:23;;;;;;;4.77;1.70;;;;;;;;;;5095158;28;20027;-59
2023/03/08 01:55:48;;;;;;;1.13;0.17;;;;;;;;;;5095484;28;20020;-59
2023/03/08 01:58:14;;;;;;;0.20;0.00;;;;;;;;;;5094895;28;20030;-63
2023/03/08 02:00:39;;;;;;;0.23;0.13;;;;;;;;;;5096217;28;20051;-60
2023/03/08 02:03:07;;;;;;;0.47;0.47;;;;;;;;;;5108646;28;20038;-57
2023/03/08 02:05:35;;;;;;;1.13;0.47;;;;;;;;;;5109282;28;20016;-58
2023/03/08 02:08:00;;;;;;;1.57;0.90;;;;;;;;;;5095011;28;20016;-56
2023/03/08 02:10:26;;;;;;;0.20;0.20;;;;;;;;;;5093738;28;20023;-62
2023/03/08 02:12:51;;;;;;;2.40;1.00;;;;;;;;;;5092468;28;20123;-58
2023/03/08 02:15:18;;;;;;;0.33;0.27;;;;;;;;;;5092381;28;20422;-58
2023/03/08 02:17:43;;;;;;;6.80;0.57;;;;;;;;;;5108493;28;20058;-59
2023/03/08 02:20:16;;;;;;;1.80;0.33;;;;;;;;;;5112077;28;20376;-60
2023/03/08 02:22:42;;;;;;;0.10;0.10;;;;;;;;;;5111607;28;20024;-59
2023/03/08 02:25:15;;;;;;;0.73;0.47;;;;;;;;;;5095245;28;20044;-60
2023/03/08 02:27:40;;;;;;;1.50;0.73;;;;;;;;;;5109647;28;20028;-58
2023/03/08 02:30:06;;;;;;;0.40;0.30;;;;;;;;;;5108832;28;20020;-57
2023/03/08 02:32:32;;;;;;;2.23;0.27;;;;;;;;;;5109091;28;20028;-57
2023/03/08 02:34:57;;;;;;;0.20;0.20;;;;;;;;;;5097169;28;20495;-67
2023/03/08 02:37:23;;;;;;;3.30;0.50;;;;;;;;;;5097352;28;20023;-58
2023/03/08 02:39:48;;;;;;;1.13;0.43;;;;;;;;;;5097038;28;20443;-59
2023/03/08 02:42:13;;;;;;;1.90;0.40;;;;;;;;;;5096911;28;20016;-59
2023/03/08 02:44:39;;;;;;;0.47;0.43;;;;;;;;;;5112886;28;20073;-59
2023/03/08 02:47:04;;;;;;;0.30;0.00;;;;;;;;;;5097049;28;20021;-58
2023/03/08 02:49:31;;;;;;;0.20;0.20;;;;;;;;;;5112730;28;20048;-58
2023/03/08 02:51:56;;;;;;;0.40;0.40;;;;;;;;;;5112717;28;20028;-57
2023/03/08 02:54:22;;;;;;;0.60;0.43;;;;;;;;;;5112964;28;20074;-58
2023/03/08 02:56:47;;;;;;;0.20;0.20;;;;;;;;;;5096750;28;20028;-62
2023/03/08 02:59:13;;;;;;;0.53;0.53;;;;;;;;;;5096571;28;20099;-59
2023/03/08 03:01:38;;;;;;;0.20;0.13;;;;;;;;;;5113038;28;20100;-57
2023/03/08 03:04:03;;;;;;;2.10;1.10;;;;;;;;;;5096811;28;20110;-57
2023/03/08 03:06:29;;;;;;;0.87;0.60;;;;;;;;;;5112707;28;20024;-57
2023/03/08 03:08:54;;;;;;;1.27;0.70;;;;;;;;;;5112339;28;20024;-58
2023/03/08 03:11:21;;;;;;;0.93;0.60;;;;;;;;;;5094679;28;20139;-58
2023/03/08 03:13:46;;;;;;;0.87;0.27;;;;;;;;;;5113086;28;20098;-58
2023/03/08 03:16:14;;;;;;;1.47;0.63;;;;;;;;;;5098405;28;20035;-61
2023/03/08 03:18:40;;;;;;;1.07;0.43;;;;;;;;;;5113317;28;20017;-58
2023/03/08 03:21:07;;;;;;;1.03;0.67;;;;;;;;;;5111643;28;20051;-62
2023/03/08 03:23:34;;;;;;;0.77;0.37;;;;;;;;;;5096143;28;20043;-58
2023/03/08 03:26:07;;;;;;;1.50;0.20;;;;;;;;;;5111842;28;20585;-58
2023/03/08 03:28:32;;;;;;;0.30;0.30;;;;;;;;;;5112053;28;20119;-57
2023/03/08 03:30:58;;;;;;;0.53;0.23;;;;;;;;;;5095905;28;20039;-59
2023/03/08 03:33:23;;;;;;;0.57;0.30;;;;;;;;;;5096016;28;20020;-58
2023/03/08 03:35:49;;;;;;;2.27;0.87;;;;;;;;;;5096193;28;20485;-58
2023/03/08 03:38:14;;;;;;;0.10;0.07;;;;;;;;;;5111804;28;20065;-58
2023/03/08 03:40:39;;;;;;;0.53;0.53;;;;;;;;;;5094967;28;20016;-59
2023/03/08 03:43:06;;;;;;;2.00;0.83;;;;;;;;;;5111497;28;20035;-59
2023/03/08 03:45:31;;;;;;;0.87;0.40;;;;;;;;;;5095628;28;20016;-64
2023/03/08 03:47:57;;;;;;;0.50;0.40;;;;;;;;;;5096203;28;20016;-59
2023/03/08 03:50:23;;;;;;;0.97;0.47;;;;;;;;;;5112927;28;20082;-58
2023/03/08 03:52:49;;;;;;;1.90;0.93;;;;;;;;;;5096342;28;20115;-57
2023/03/08 03:55:14;;;;;;;0.30;0.20;;;;;;;;;;5110913;28;20056;-56
2023/03/08 03:57:40;;;;;;;3.13;0.67;;;;;;;;;;5111292;28;20020;-61
2023/03/08 04:00:06;;;;;;;0.10;0.10;;;;;;;;;;5111515;28;20028;-60
2023/03/08 04:02:32;;;;;;;0.77;0.43;;;;;;;;;;5111068;28;20069;-58
2023/03/08 04:04:57;;;;;;;1.27;0.57;;;;;;;;;;5095323;28;20020;-57
2023/03/08 04:07:23;;;;;;;0.17;0.17;;;;;;;;;;5095654;28;20016;-63
2023/03/08 04:09:48;;;;;;;1.03;0.53;;;;;;;;;;5096327;28;20030;-64
2023/03/08 04:12:14;;;;;;;0.30;0.30;;;;;;;;;;5095875;28;20106;-59
2023/03/08 04:14:39;;;;;;;0.33;0.13;;;;;;;;;;5095342;28;20016;-58
2023/03/08 04:17:05;;;;;;;0.00;0.00;;;;;;;;;;5110611;28;20078;-57
2023/03/08 04:19:30;;;;;;;0.07;0.07;;;;;;;;;;5094964;28;20016;-58
2023/03/08 04:21:56;;;;;;;0.40;0.20;;;;;;;;;;5110666;28;20008;-61
2023/03/08 04:24:22;;;;;;;1.07;0.30;;;;;;;;;;5110626;28;20498;-58
2023/03/08 04:26:48;;;;;;;0.37;0.37;;;;;;;;;;5094799;28;20020;-62
2023/03/08 04:29:13;;;;;;;0.50;0.37;;;;;;;;;;5110599;28;20107;-58
2023/03/08 04:31:38;;;;;;;0.73;0.20;;;;;;;;;;5095686;28;20111;-66
2023/03/08 04:34:04;;;;;;;1.93;1.30;;;;;;;;;;5098597;28;20055;-67
2023/03/08 04:36:29;;;;;;;1.27;0.37;;;;;;;;;;5097259;28;20012;-58
2023/03/08 04:38:55;;;;;;;0.13;0.13;;;;;;;;;;5094978;28;20051;-62
2023/03/08 04:41:20;;;;;;;0.00;0.00;;;;;;;;;;5110625;28;20024;-56
2023/03/08 04:43:50;;;;;;;0.43;0.37;;;;;;;;;;5110175;28;20020;-60
2023/03/08 04:46:16;;;;;;;1.23;0.40;;;;;;;;;;5094955;28;20485;-59
2023/03/08 04:48:42;;;;;;;0.10;0.10;;;;;;;;;;5110041;28;20054;-61
2023/03/08 04:51:08;;;;;;;0.00;0.00;;;;;;;;;;5094083;28;20013;-58
2023/03/08 04:53:34;;;;;;;0.00;0.00;;;;;;;;;;5111115;28;20012;-60
2023/03/08 04:55:59;;;;;;;1.23;0.50;;;;;;;;;;5112990;28;20077;-65
2023/03/08 04:58:25;;;;;;;1.80;0.63;;;;;;;;;;5112992;28;20374;-59
2023/03/08 05:00:51;;;;;;;0.40;0.40;;;;;;;;;;5096453;28;20028;-59
2023/03/08 05:03:16;;;;;;;0.53;0.53;;;;;;;;;;5094123;28;20024;-60
2023/03/08 05:05:46;;;;;;;0.00;0.00;;;;;;;;;;5092819;28;20544;-58
2023/03/08 05:08:11;;;;;;;2.33;0.70;;;;;;;;;;5109662;28;20170;-57
2023/03/08 05:10:37;;;;;;;0.00;0.00;;;;;;;;;;5109573;28;20115;-58
2023/03/08 05:13:02;;;;;;;0.43;0.37;;;;;;;;;;5109556;28;20035;-59
2023/03/08 05:15:27;;;;;;;0.20;0.20;;;;;;;;;;5111443;28;20031;-61
2023/03/08 05:17:53;;;;;;;0.27;0.00;;;;;;;;;;5111391;28;20027;-58
2023/03/08 05:20:18;;;;;;;0.57;0.10;;;;;;;;;;5109957;28;20111;-59
2023/03/08 05:22:44;;;;;;;1.43;0.30;;;;;;;;;;5109988;28;20020;-58
2023/03/08 05:25:09;;;;;;;0.10;0.10;;;;;;;;;;5109580;28;20020;-58
2023/03/08 05:27:35;;;;;;;0.40;0.40;;;;;;;;;;5109729;28;20016;-58
2023/03/08 05:30:00;;;;;;;0.00;0.00;;;;;;;;;;5094355;28;20019;-61
2023/03/08 05:32:26;;;;;;;0.87;0.77;;;;;;;;;;5094571;28;20032;-58
2023/03/08 05:34:52;;;;;;;0.07;0.07;;;;;;;;;;5110216;28;20020;-59
2023/03/08 05:37:19;;;;;;;0.57;0.13;;;;;;;;;;5109561;28;20465;-59
2023/03/08 05:39:46;;;;;;;0.40;0.40;;;;;;;;;;5092824;28;20016;-58
2023/03/08 05:42:13;;;;;;;0.40;0.27;;;;;;;;;;5093880;28;20427;-57
2023/03/08 05:44:39;;;;;;;1.33;0.70;;;;;;;;;;5092572;28;20448;-59
2023/03/08 05:47:04;;;;;;;0.50;0.50;;;;;;;;;;5109274;28;20047;-59
2023/03/08 05:49:30;;;;;;;0.20;0.03;;;;;;;;;;5109752;28;20396;-58
2023/03/08 05:51:55;;;;;;;0.00;0.00;;;;;;;;;;5109092;28;20028;-58
2023/03/08 05:54:21;;;;;;;0.57;0.13;;;;;;;;;;5093443;28;20082;-58
2023/03/08 05:56:46;;;;;;;0.13;0.10;;;;;;;;;;5091982;28;20028;-60
2023/03/08 05:59:12;;;;;;;0.77;0.20;;;;;;;;;;5093384;28;20019;-58
2023/03/08 06:01:37;;;;;;;0.00;0.00;;;;;;;;;;5092910;28;20049;-57
2023/03/08 06:04:03;;;;;;;0.00;0.00;;;;;;;;;;5091721;28;20056;-58
2023/03/08 06:06:28;;;;;;;0.00;0.00;;;;;;;;;;5109084;28;20012;-65
2023/03/08 06:08:55;;;;;;;0.20;0.10;;;;;;;;;;5108432;28;20055;-58
2023/03/08 07:47:52;;;;;;;0.00;0.00;;;;;;;;;;5109219;27;20367;-58
2023/03/08 07:50:18;;;;;;;0.00;0.00;;;;;;;;;;5109848;28;20106;-61
2023/03/08 07:52:43;;;;;;;0.20;0.20;;;;;;;;;;5111386;28;20344;-59
2023/03/08 07:55:10;;;;;;;0.65;0.35;;;;;;;;;;5110387;28;20020;-67
2023/03/08 07:59:18;;;;;;;0.00;0.00;;;;;;;;;;5109223;27;20372;-59
2023/03/08 08:01:43;;;;;;;0.00;0.00;;;;;;;;;;5107927;28;20119;-58
2023/03/08 08:04:11;;;;;;;0.00;0.00;;;;;;;;;;5108485;28;20045;-57
2023/03/08 08:06:37;;;;;;;0.00;0.00;;;;;;;;;;5108696;28;20111;-59
2023/03/08 08:09:02;;;;;;;0.00;0.00;;;;;;;;;;5108040;28;20047;-58
2023/03/08 08:13:40;;;;;;;0.50;0.40;;;;;;;;;;5109422;27;20387;-58
2023/03/08 08:16:06;;;;;;;0.00;0.00;;;;;;;;;;5109786;28;20106;-59
2023/03/08 08:20:06;;;;;;;0.20;0.10;;;;;;;;;;5132153;27;20673;-59
2023/03/08 08:22:33;;;;;;;0.27;0.27;;;;;;;;;;5130200;27;20051;-60
2023/03/08 08:24:59;;;;;;;0.00;0.00;;;;;;;;;;5132229;27;20487;-57
2023/03/08 08:27:24;;;;;;;0.00;0.00;;;;;;;;;;5130297;28;20027;-58
2023/03/08 08:29:50;;;;;;;0.00;0.00;;;;;;;;;;5130088;28;20151;-55
2023/03/08 08:32:16;;;;;;;0.00;0.00;;;;;;;;;;5131636;27;20471;-58
2023/03/08 08:34:41;;;;;;;0.00;0.00;;;;;;;;;;5130336;28;20102;-57
2023/03/08 08:37:06;;;;;;;0.10;0.10;;;;;;;;;;5131358;27;20380;-57
2023/03/08 08:39:32;;;;;;;0.00;0.00;;;;;;;;;;5131350;27;20038;-65
2023/03/08 08:41:57;;;;;;;0.00;0.00;;;;;;;;;;5131296;27;20019;-59
2023/03/08 08:44:23;;;;;;;0.10;0.10;;;;;;;;;;5130385;27;20024;-58
2023/03/08 08:46:48;;;;;;;0.00;0.00;;;;;;;;;;5130695;28;20019;-55
2023/03/08 08:49:14;;;;;;;0.00;0.00;;;;;;;;;;5129838;27;20015;-58
2023/03/08 08:51:40;;;;;;;0.10;0.07;;;;;;;;;;5130064;28;20033;-60
2023/03/08 08:54:06;;;;;;;0.20;0.20;;;;;;;;;;5131020;27;20015;-57
2023/03/08 08:56:31;;;;;;;0.00;0.00;;;;;;;;;;5131870;27;20045;-58
2023/03/08 08:58:58;;;;;;;0.00;0.00;;;;;;;;;;5132044;27;20519;-57
2023/03/08 09:01:25;;;;;;;0.07;0.00;;;;;;;;;;5131088;27;20508;-60
2023/03/08 09:03:50;;;;;;;0.97;0.10;;;;;;;;;;5132969;27;20019;-57
2023/03/08 09:06:18;;;;;;;0.20;0.20;;;;;;;;;;5131406;27;20019;-58
2023/03/08 09:08:44;;;;;;;0.50;0.10;;;;;;;;;;5131626;27;20016;-65
2023/03/08 09:11:09;;;;;;;1.90;0.73;;;;;;;;;;5130976;27;20022;-61
2023/03/08 09:13:39;;;;;;;0.10;0.10;;;;;;;;;;5130555;28;20020;-59
2023/03/08 09:16:05;;;;;;;0.13;0.13;;;;;;;;;;5131761;27;20015;-60
2023/03/08 09:18:30;;;;;;;0.00;0.00;;;;;;;;;;5132401;27;20188;-58
2023/03/08 09:20:56;;;;;;;0.10;0.10;;;;;;;;;;5130876;28;20022;-57
2023/03/08 09:23:21;;;;;;;0.00;0.00;;;;;;;;;;5131796;27;20471;-62
2023/03/08 09:25:57;;;;;;;0.20;0.20;;;;;;;;;;5130704;27;20023;-56
2023/03/08 09:28:22;;;;;;;0.00;0.00;;;;;;;;;;5129643;27;20076;-56
2023/03/08 09:30:48;;;;;;;0.67;0.63;;;;;;;;;;5118408;28;20023;-58
2023/03/08 09:33:13;;;;;;;3.60;0.40;;;;;;;;;;5115270;28;20069;-58
2023/03/08 09:35:39;;;;;;;0.00;0.00;;;;;;;;;;5116742;27;20019;-57
2023/03/08 09:38:04;;;;;;;0.00;0.00;;;;;;;;;;5116339;28;20404;-57
2023/03/08 09:40:32;;;;;;;0.03;0.03;;;;;;;;;;5114708;28;20024;-58
2023/03/08 09:43:02;;;;;;;0.00;0.00;;;;;;;;;;5114485;28;20023;-59
2023/03/08 09:45:28;;;;;;;0.10;0.10;;;;;;;;;;5115258;28;20068;-58
2023/03/08 09:47:58;;;;;;;0.00;0.00;;;;;;;;;;5115721;28;20028;-58
2023/03/08 09:50:30;;;;;;;0.00;0.00;;;;;;;;;;5116028;28;20048;-57
2023/03/08 09:52:59;;;;;;;0.00;0.00;;;;;;;;;;5116225;28;20154;-57
2023/03/08 09:55:31;;;;;;;0.00;0.00;;;;;;;;;;5116360;28;20484;-57
2023/03/08 09:57:59;;;;;;;0.00;0.00;;;;;;;;;;5116306;28;20023;-62
2023/03/08 10:00:32;;;;;;;0.00;0.00;;;;;;;;;;5116870;28;20019;-58
2023/03/08 10:02:58;;;;;;;0.00;0.00;;;;;;;;;;5115607;28;20047;-59
2023/03/08 10:05:29;;;;;;;0.27;0.27;;;;;;;;;;5116044;28;20115;-60
2023/03/08 10:08:12;;;;;;;0.00;0.00;;;;;;;;;;5115516;28;20027;-57
2023/03/08 10:10:41;;;;;;;0.07;0.07;;;;;;;;;;5114567;28;20020;-58
2023/03/08 10:13:22;;;;;;;0.30;0.30;;;;;;;;;;5115323;28;20016;-57
2023/03/08 10:15:50;;;;;;;0.00;0.00;;;;;;;;;;5114265;28;20386;-57
2023/03/08 10:18:35;;;;;;;0.00;0.00;;;;;;;;;;5115033;28;20060;-58
2023/03/08 10:21:01;;;;;;;;;;;;;;;;;;5072672;28;20020;-58
2023/03/08 10:23:32;;;;;;;0.30;0.10;;;;;;;;;;5114160;28;19903;-58
2023/03/08 10:25:58;;;;;;;0.00;0.00;;;;;;;;;;5115411;28;20026;-59
2023/03/08 10:28:25;;;;;;;0.00;0.00;;;;;;;;;;5113611;28;20008;-59
2023/03/08 10:30:52;;;;;;;0.00;0.00;;;;;;;;;;5114714;28;20019;-56
2023/03/08 10:33:19;;;;;;;0.00;0.00;;;;;;;;;;5115297;28;20023;-61
2023/03/08 10:35:54;;;;;;;0.63;0.17;;;;;;;;;;5113615;28;20166;-56
2023/03/08 10:38:20;;;;;;;0.15;0.15;;;;;;;;;;5113671;28;20032;-57
2023/03/08 10:40:46;;;;;;;0.00;0.00;;;;;;;;;;5115436;27;20024;-58
2023/03/08 10:43:24;;;;;;;0.03;0.03;;;;;;;;;;5112170;28;20027;-59
2023/03/08 10:45:57;;;;;;;0.00;0.00;;;;;;;;;;5114800;28;20024;-59
2023/03/08 10:48:22;;;;;;;0.10;0.10;;;;;;;;;;5113540;28;20023;-58
2023/03/08 10:50:56;;;;;;;1.80;0.60;;;;;;;;;;5114651;28;20039;-60
2023/03/08 10:53:23;;;;;;;0.00;0.00;;;;;;;;;;5112742;28;20012;-60
2023/03/08 10:55:49;;;;;;;0.07;0.07;;;;;;;;;;5112515;28;20020;-59
2023/03/08 10:58:33;;;;;;;0.27;0.27;;;;;;;;;;5113187;28;20572;-59
2023/03/08 11:01:03;;;;;;;0.00;0.00;;;;;;;;;;5113717;28;20034;-59
2023/03/08 11:03:29;;;;;;;1.70;0.27;;;;;;;;;;5112523;28;20225;-59
2023/03/08 11:06:00;;;;;;;1.00;0.83;;;;;;;;;;5113487;28;20095;-57
2023/03/08 11:08:36;;;;;;;0.00;0.00;;;;;;;;;;5113506;28;20027;-59
2023/03/08 11:11:12;;;;;;;0.00;0.00;;;;;;;;;;5112412;28;20057;-57
2023/03/08 11:13:40;;;;;;;0.00;0.00;;;;;;;;;;5112461;28;20500;-58
2023/03/08 11:16:15;;;;;;;0.23;0.23;;;;;;;;;;5112463;28;20081;-60
2023/03/08 11:18:52;;;;;;;0.00;0.00;;;;;;;;;;5113578;28;20051;-56
2023/03/08 11:21:23;;;;;;;0.10;0.10;;;;;;;;;;5113381;28;20036;-57
2023/03/08 11:23:52;;;;;;;0.00;0.00;;;;;;;;;;5112512;28;20118;-59
2023/03/08 11:26:22;;;;;;;0.00;0.00;;;;;;;;;;5112929;28;20028;-60
2023/03/08 11:28:48;;;;;;;0.00;0.00;;;;;;;;;;5112273;28;20496;-62
2023/03/08 11:31:17;;;;;;;0.93;0.10;;;;;;;;;;5111799;28;20121;-62
2023/03/08 11:34:07;;;;;;;0.27;0.27;;;;;;;;;;5112650;28;20027;-63
2023/03/08 11:36:55;;;;;;;0.00;0.00;;;;;;;;;;5101886;28;20125;-60
2023/03/08 11:39:37;;;;;;;0.87;0.40;;;;;;;;;;5075954;28;20060;-64
2023/03/08 11:42:21;;;;;;;0.47;0.47;;;;;;;;;;5113753;28;20391;-60
2023/03/08 11:44:55;;;;;;;0.30;0.30;;;;;;;;;;5113290;28;20012;-64
2023/03/08 11:47:23;;;;;;;0.00;0.00;;;;;;;;;;5113423;28;20492;-65
2023/03/08 11:50:04;;;;;;;0.47;0.47;;;;;;;;;;5114320;28;20272;-59
2023/03/08 11:52:48;;;;;;;0.20;0.17;;;;;;;;;;5112982;28;20357;-58
2023/03/08 11:55:19;;;;;;;0.20;0.20;;;;;;;;;;5114158;28;20134;-56
2023/03/08 11:57:48;;;;;;;0.37;0.27;;;;;;;;;;5114291;28;20020;-59
2023/03/08 12:00:36;;;;;;;0.00;0.00;;;;;;;;;;5115122;28;20153;-61
2023/03/08 12:03:08;;;;;;;0.37;0.37;;;;;;;;;;5114992;28;20524;-57
2023/03/08 12:05:35;;;;;;;3.10;0.63;;;;;;;;;;5112473;28;20107;-57
2023/03/08 12:08:09;;;;;;;0.20;0.20;;;;;;;;;;5113371;28;20028;-56
2023/03/08 12:11:04;;;;;;;0.10;0.10;;;;;;;;;;5114693;28;20058;-57
2023/03/08 12:13:29;;;;;;;0.30;0.20;;;;;;;;;;5041004;28;20406;-58
2023/03/08 12:16:02;;;;;;;0.00;0.00;;;;;;;;;;5112941;28;20076;-59
2023/03/08 12:18:35;;;;;;;0.10;0.00;;;;;;;;;;5113164;28;20503;-63
2023/03/08 12:21:10;;;;;;;0.05;0.05;;;;;;;;;;5111850;28;20471;-58
2023/03/08 12:23:42;;;;;;;0.20;0.20;;;;;;;;;;5112543;28;20441;-56
2023/03/08 12:26:07;;;;;;;0.63;0.63;;;;;;;;;;5113071;28;20027;-57
2023/03/08 12:28:46;;;;;;;2.93;0.23;;;;;;;;;;5112019;28;20012;-58
2023/03/08 12:31:21;;;;;;;0.23;0.23;;;;;;;;;;5112038;28;20028;-57
2023/03/08 12:33:47;;;;;;;;;;;;;;;;;;5113689;28;20023;-57
2023/03/08 12:36:12;;;;;;;0.20;0.20;;;;;;;;;;5113258;28;19907;-57
2023/03/08 12:38:44;;;;;;;0.00;0.00;;;;;;;;;;5111365;28;20031;-57
2023/03/08 12:41:21;;;;;;;0.00;0.00;;;;;;;;;;5111927;28;20437;-58
2023/03/08 12:43:57;;;;;;;0.00;0.00;;;;;;;;;;5112474;28;20030;-58
2023/03/08 12:46:22;;;;;;;0.00;0.00;;;;;;;;;;5112660;28;20106;-58
2023/03/08 12:48:48;;;;;;;0.15;0.10;;;;;;;;;;5113175;28;20071;-63
2023/03/08 12:51:15;;;;;;;0.30;0.30;;;;;;;;;;5112601;28;20450;-60
2023/03/08 12:53:53;;;;;;;0.40;0.30;;;;;;;;;;5114966;28;20472;-59
2023/03/08 12:56:24;;;;;;;0.00;0.00;;;;;;;;;;5112357;28;20107;-58
2023/03/08 12:59:00;;;;;;;0.10;0.10;;;;;;;;;;5112224;28;20515;-59
2023/03/08 13:01:33;;;;;;;0.17;0.17;;;;;;;;;;5113326;28;20023;-60
2023/03/08 13:03:58;;;;;;;0.00;0.00;;;;;;;;;;5115172;28;20020;-63
2023/03/08 13:06:36;;;;;;;0.08;0.08;;;;;;;;;;5116919;28;20030;-61
2023/03/08 13:09:26;;;;;;;0.87;0.40;;;;;;;;;;5115716;28;20020;-58
2023/03/08 13:11:56;;;;;;;8.40;0.68;;;;;;;;;;5087675;28;20027;-58
2023/03/08 13:14:25;;;;;;;3.57;0.60;;;;;;;;;;5117162;28;20012;-58
2023/03/08 13:16:50;;;;;;;0.63;0.30;;;;;;;;;;5115572;28;20016;-60
2023/03/08 13:19:17;;;;;;;1.03;0.40;;;;;;;;;;5117101;28;20066;-61
2023/03/08 13:21:48;;;;;;;0.43;0.20;;;;;;;;;;5116364;28;20026;-63
2023/03/08 13:24:16;;;;;;;0.83;0.67;;;;;;;;;;5115881;28;20114;-60
2023/03/08 13:26:47;;;;;;;0.53;0.43;;;;;;;;;;5116985;28;20054;-61
2023/03/08 13:29:17;;;;;;;3.50;0.57;;;;;;;;;;5117714;28;20388;-61
2023/03/08 13:31:43;;;;;;;0.57;0.57;;;;;;;;;;5116548;28;20016;-63
2023/03/08 13:34:31;;;;;;;0.00;0.00;;;;;;;;;;5114705;28;20337;-65
2023/03/08 13:36:57;;;;;;;0.30;0.30;;;;;;;;;;5115938;28;20043;-63
2023/03/08 13:39:27;;;;;;;1.25;0.32;;;;;;;;;;5116195;28;20090;-68
2023/03/08 13:42:04;;;;;;;0.47;0.25;;;;;;;;;;5114862;28;20045;-68
2023/03/08 13:44:29;;;;;;;0.43;0.20;;;;;;;;;;5114437;28;20047;-66
2023/03/08 13:47:03;;;;;;;0.30;0.30;;;;;;;;;;5116013;28;20427;-63
2023/03/08 13:49:30;;;;;;;0.93;0.40;;;;;;;;;;5116015;28;20039;-64
2023/03/08 13:51:58;;;;;;;0.35;0.10;;;;;;;;;;5116124;28;20545;-63
2023/03/08 13:54:32;;;;;;;1.23;0.98;;;;;;;;;;5118968;28;20026;-68
2023/03/08 13:56:58;;;;;;;0.10;0.10;;;;;;;;;;5115805;28;20020;-62
2023/03/08 13:59:24;;;;;;;0.20;0.20;;;;;;;;;;5114175;28;20119;-65
2023/03/08 14:01:51;;;;;;;0.28;0.25;;;;;;;;;;5115693;27;20110;-65
2023/03/08 14:04:18;;;;;;;0.10;0.10;;;;;;;;;;5114659;28;20095;-64
2023/03/08 14:06:51;;;;;;;0.20;0.17;;;;;;;;;;5114559;28;20030;-65
2023/03/08 14:09:18;;;;;;;1.10;1.00;;;;;;;;;;5114052;28;20012;-64
2023/03/08 14:11:44;;;;;;;0.15;0.15;;;;;;;;;;5114050;28;20019;-64
2023/03/08 14:14:16;;;;;;;6.77;0.20;;;;;;;;;;5115752;28;20057;-63
2023/03/08 14:16:42;;;;;;;0.00;0.00;;;;;;;;;;5115207;28;20026;-64
2023/03/08 14:19:09;;;;;;;0.30;0.15;;;;;;;;;;5115074;28;20048;-62
2023/03/08 14:21:35;;;;;;;0.00;0.00;;;;;;;;;;5113909;28;20020;-63
2023/03/08 14:24:02;;;;;;;0.00;0.00;;;;;;;;;;5114121;28;20028;-63
2023/03/08 14:26:34;;;;;;;0.40;0.38;;;;;;;;;;5115171;28;20015;-63
2023/03/08 14:29:02;;;;;;;0.25;0.25;;;;;;;;;;5113849;28;20528;-62
2023/03/08 14:31:28;;;;;;;0.00;0.00;;;;;;;;;;5115527;28;20016;-63
2023/03/08 14:33:58;;;;;;;0.00;0.00;;;;;;;;;;5114113;28;20593;-64
2023/03/08 14:36:25;;;;;;;0.47;0.47;;;;;;;;;;5114094;28;20056;-65
2023/03/08 14:38:50;;;;;;;0.00;0.00;;;;;;;;;;5114943;28;20388;-63
2023/03/08 14:41:16;;;;;;;2.67;0.50;;;;;;;;;;5113817;28;20028;-70
2023/03/08 14:43:48;;;;;;;0.00;0.00;;;;;;;;;;5117546;28;20600;-66
2023/03/08 14:46:17;;;;;;;0.00;0.00;;;;;;;;;;5116840;28;20041;-67
2023/03/08 14:48:42;;;;;;;0.00;0.00;;;;;;;;;;5115805;28;20574;-63
2023/03/08 14:51:17;;;;;;;0.00;0.00;;;;;;;;;;5114575;28;20096;-64
2023/03/08 14:53:42;;;;;;;;;;;;;;;;;;5113679;28;20392;-65
2023/03/08 14:56:08;;;;;;;0.00;0.00;;;;;;;;;;5114480;28;19904;-64
2023/03/08 14:58:36;;;;;;;0.00;0.00;;;;;;;;;;5113892;28;20039;-65
2023/03/08 15:01:02;;;;;;;0.00;0.00;;;;;;;;;;5115201;28;20468;-65
2023/03/08 15:03:28;;;;;;;0.00;0.00;;;;;;;;;;5114139;28;20019;-61
2023/03/08 15:05:54;;;;;;;0.83;0.20;;;;;;;;;;5113092;28;20023;-63
2023/03/08 15:08:20;;;;;;;1.23;0.83;;;;;;;;;;5112878;28;20485;-63
2023/03/08 15:10:46;;;;;;;0.00;0.00;;;;;;;;;;5112473;28;20072;-61
2023/03/08 15:13:16;;;;;;;0.00;0.00;;;;;;;;;;5114993;28;20495;-67
2023/03/08 15:15:41;;;;;;;0.00;0.00;;;;;;;;;;5117433;28;20020;-66
2023/03/08 15:18:07;;;;;;;0.03;0.03;;;;;;;;;;5116692;28;20022;-70
2023/03/08 15:20:32;;;;;;;0.20;0.10;;;;;;;;;;5093343;28;20036;-62
2023/03/08 15:22:59;;;;;;;0.00;0.00;;;;;;;;;;5094049;28;20013;-62
2023/03/08 15:25:26;;;;;;;0.00;0.00;;;;;;;;;;5094060;28;20039;-62
2023/03/08 15:27:52;;;;;;;0.00;0.00;;;;;;;;;;5092878;28;20028;-61
2023/03/08 15:30:19;;;;;;;0.00;0.00;;;;;;;;;;5093492;28;20016;-61
2023/03/08 15:32:45;;;;;;;0.00;0.00;;;;;;;;;;5092233;28;20147;-62
2023/03/08 15:35:11;;;;;;;0.00;0.00;;;;;;;;;;5091916;28;20172;-59
2023/03/08 15:37:36;;;;;;;0.00;0.00;;;;;;;;;;5092346;28;20022;-60
2023/03/08 15:40:05;;;;;;;0.00;0.00;;;;;;;;;;5091672;28;20032;-61
2023/03/08 15:42:31;;;;;;;0.00;0.00;;;;;;;;;;5093048;28;20016;-60
2023/03/08 15:44:56;;;;;;;0.37;0.37;;;;;;;;;;5093333;28;20012;-61
2023/03/08 15:47:22;;;;;;;0.00;0.00;;;;;;;;;;5093231;28;20439;-61
2023/03/08 15:49:50;;;;;;;0.00;0.00;;;;;;;;;;5092198;28;20539;-61
2023/03/08 15:52:16;;;;;;;0.00;0.00;;;;;;;;;;5093047;28;20020;-59
2023/03/08 15:54:46;;;;;;;0.00;0.00;;;;;;;;;;5093225;28;20027;-61
2023/03/08 15:57:12;;;;;;;0.00;0.00;;;;;;;;;;5092912;28;20016;-61
2023/03/08 15:59:37;;;;;;;0.00;0.00;;;;;;;;;;5092049;28;20031;-59
2023/03/08 16:02:02;;;;;;;0.00;0.00;;;;;;;;;;5091445;28;20023;-60
2023/03/08 16:04:28;;;;;;;0.43;0.17;;;;;;;;;;5091671;28;20016;-59
2023/03/08 16:06:53;;;;;;;0.00;0.00;;;;;;;;;;5091871;28;20016;-60
2023/03/08 16:09:19;;;;;;;0.00;0.00;;;;;;;;;;5091654;28;20469;-60
2023/03/08 16:11:44;;;;;;;0.20;0.13;;;;;;;;;;5093317;28;20015;-62
2023/03/08 16:14:16;;;;;;;1.90;0.60;;;;;;;;;;5095244;28;20020;-59
2023/03/08 16:16:44;;;;;;;0.43;0.43;;;;;;;;;;5095064;28;20016;-60
2023/03/08 16:19:09;;;;;;;0.00;0.00;;;;;;;;;;5099700;28;20131;-62
2023/03/08 16:21:35;;;;;;;0.00;0.00;;;;;;;;;;5111926;28;20055;-60
2023/03/08 16:24:01;;;;;;;0.00;0.00;;;;;;;;;;5113196;28;20038;-61
2023/03/08 16:26:28;;;;;;;0.00;0.00;;;;;;;;;;5111955;28;20046;-61
2023/03/08 16:28:53;;;;;;;0.00;0.00;;;;;;;;;;5112756;28;20062;-61